createdAt,value
2023-05-23T00:01:09.107Z,19.30
2023-05-23T00:03:37.769Z,19.30
2023-05-23T00:06:06.732Z,19.20
2023-05-23T00:08:34.058Z,19.20
2023-05-23T00:11:01.440Z,19.10
2023-05-23T00:13:28.732Z,19.00
2023-05-23T00:15:56.514Z,19.00
2023-05-23T00:18:24.977Z,18.90
2023-05-23T00:20:52.513Z,18.90
2023-05-23T00:23:21.031Z,18.70
2023-05-23T00:25:53.562Z,18.70
2023-05-23T00:28:21.327Z,18.60
2023-05-23T00:30:49.394Z,18.60
2023-05-23T00:33:17.991Z,18.50
2023-05-23T00:35:45.603Z,18.40
2023-05-23T00:38:14.451Z,18.40
2023-05-23T00:40:41.799Z,18.40
2023-05-23T00:43:10.046Z,18.30
2023-05-23T00:45:37.496Z,18.30
2023-05-23T00:48:06.362Z,18.30
2023-05-23T00:50:34.228Z,18.20
2023-05-23T00:53:01.932Z,18.20
2023-05-23T00:55:30.300Z,18.10
2023-05-23T00:57:57.976Z,18.10
2023-05-23T01:00:26.255Z,18.00
2023-05-23T01:02:54.029Z,18.00
2023-05-23T01:05:25.054Z,17.90
2023-05-23T01:07:52.957Z,17.80
2023-05-23T01:10:24.997Z,17.80
2023-05-23T01:13:17.278Z,17.80
2023-05-23T01:16:06.383Z,17.80
2023-05-23T01:18:46.571Z,17.70
2023-05-23T01:21:18.136Z,17.70
2023-05-23T01:24:13.376Z,17.60
2023-05-23T01:27:02.669Z,17.70
2023-05-23T01:29:36.672Z,17.60
2023-05-23T01:32:07.970Z,17.50
2023-05-23T01:34:38.457Z,17.40
2023-05-23T01:37:10.952Z,17.30
2023-05-23T01:39:39.343Z,17.30
2023-05-23T01:42:09.855Z,17.20
2023-05-23T01:44:38.681Z,17.20
2023-05-23T01:47:08.511Z,17.30
2023-05-23T01:49:38.032Z,17.20
2023-05-23T01:52:06.308Z,17.20
2023-05-23T01:54:35.413Z,17.20
2023-05-23T01:57:04.173Z,17.30
2023-05-23T01:59:33.050Z,17.30
2023-05-23T02:02:01.246Z,17.20
2023-05-23T02:04:28.857Z,17.20
2023-05-23T02:06:56.229Z,17.20
2023-05-23T02:09:23.747Z,17.20
2023-05-23T02:11:51.217Z,17.20
2023-05-23T02:14:19.716Z,17.20
2023-05-23T02:16:47.146Z,17.10
2023-05-23T02:19:15.279Z,17.10
2023-05-23T02:21:42.660Z,17.10
2023-05-23T02:24:09.993Z,17.00
2023-05-23T02:26:37.685Z,16.90
2023-05-23T02:29:05.017Z,16.80
2023-05-23T02:31:32.792Z,16.80
2023-05-23T02:34:00.189Z,16.80
2023-05-23T02:36:28.446Z,16.70
2023-05-23T02:38:56.938Z,16.80
2023-05-23T02:41:25.006Z,16.70
2023-05-23T02:43:52.466Z,16.80
2023-05-23T02:46:19.920Z,16.70
2023-05-23T02:48:48.690Z,16.70
2023-05-23T02:51:16.298Z,16.70
2023-05-23T02:53:44.168Z,16.60
2023-05-23T02:56:13.396Z,16.60
2023-05-23T02:58:40.835Z,16.70
2023-05-23T03:01:12.090Z,16.70
2023-05-23T03:03:40.299Z,16.70
2023-05-23T03:06:10.613Z,16.70
2023-05-23T03:08:38.076Z,16.70
2023-05-23T03:11:05.554Z,16.70
2023-05-23T03:13:32.888Z,16.70
2023-05-23T03:16:00.370Z,16.70
2023-05-23T03:18:28.136Z,16.70
2023-05-23T03:20:56.379Z,16.80
2023-05-23T03:23:24.664Z,16.80
2023-05-23T03:25:52.033Z,16.80
2023-05-23T03:28:19.381Z,16.80
2023-05-23T03:30:46.841Z,16.80
2023-05-23T03:33:14.258Z,16.80
2023-05-23T03:35:42.348Z,16.80
2023-05-23T03:38:09.908Z,16.90
2023-05-23T03:40:37.589Z,16.80
2023-05-23T03:43:06.696Z,16.80
2023-05-23T03:45:36.835Z,16.90
2023-05-23T03:48:11.243Z,17.00
2023-05-23T03:50:38.757Z,17.10
2023-05-23T03:53:07.405Z,17.10
2023-05-23T03:55:36.130Z,17.20
2023-05-23T03:58:03.619Z,17.30
2023-05-23T04:00:31.240Z,17.30
2023-05-23T04:03:00.462Z,17.40
2023-05-23T04:05:27.864Z,17.40
2023-05-23T04:07:55.412Z,17.50
2023-05-23T04:10:23.441Z,17.60
2023-05-23T04:12:51.658Z,17.60
2023-05-23T04:15:21.498Z,17.70
2023-05-23T04:17:56.373Z,17.90
2023-05-23T04:20:24.998Z,18.00
2023-05-23T04:22:52.793Z,18.20
2023-05-23T04:25:20.707Z,18.30
2023-05-23T04:28:00.244Z,18.50
2023-05-23T04:30:30.552Z,18.80
2023-05-23T04:33:00.153Z,19.10
2023-05-23T04:35:29.543Z,19.40
2023-05-23T04:37:56.976Z,19.70
2023-05-23T04:40:26.586Z,20.00
2023-05-23T04:43:14.554Z,20.40
2023-05-23T04:45:55.148Z,20.90
2023-05-23T04:48:29.376Z,21.30
2023-05-23T04:50:57.459Z,21.60
2023-05-23T04:53:24.974Z,22.00
2023-05-23T04:55:52.704Z,22.20
2023-05-23T04:58:20.341Z,22.40
2023-05-23T05:00:48.080Z,22.60
2023-05-23T05:03:17.962Z,22.70
2023-05-23T05:05:46.660Z,22.70
2023-05-23T05:08:15.748Z,22.70
2023-05-23T05:10:43.880Z,22.70
2023-05-23T05:13:12.314Z,22.90
2023-05-23T05:15:45.181Z,23.10
2023-05-23T05:18:13.924Z,23.30
2023-05-23T05:20:42.313Z,23.50
2023-05-23T05:23:10.098Z,23.60
2023-05-23T05:25:38.388Z,23.80
2023-05-23T05:28:06.250Z,24.10
2023-05-23T05:30:39.007Z,24.40
2023-05-23T05:33:07.825Z,24.60
2023-05-23T05:35:38.358Z,24.90
2023-05-23T05:38:08.233Z,25.10
2023-05-23T05:40:35.809Z,25.30
2023-05-23T05:43:03.423Z,25.50
2023-05-23T05:45:31.125Z,25.60
2023-05-23T05:47:59.510Z,25.80
2023-05-23T05:50:27.689Z,25.80
2023-05-23T05:52:55.458Z,25.90
2023-05-23T05:55:23.604Z,25.90
2023-05-23T05:57:54.378Z,25.90
2023-05-23T06:00:22.591Z,26.00
2023-05-23T06:02:59.412Z,26.00
2023-05-23T06:05:37.567Z,26.00
2023-05-23T06:08:05.020Z,25.90
2023-05-23T06:10:32.893Z,25.90
2023-05-23T06:13:00.507Z,25.80
2023-05-23T06:15:28.205Z,25.70
2023-05-23T06:17:55.648Z,25.70
2023-05-23T06:20:24.708Z,25.70
2023-05-23T06:22:53.627Z,25.70
2023-05-23T06:25:21.208Z,25.70
2023-05-23T06:27:48.729Z,25.90
2023-05-23T06:30:16.499Z,25.90
2023-05-23T06:32:46.038Z,26.00
2023-05-23T06:35:13.933Z,26.10
2023-05-23T06:37:45.745Z,26.20
2023-05-23T06:40:16.161Z,26.10
2023-05-23T06:42:43.746Z,26.00
2023-05-23T06:45:20.130Z,26.10
2023-05-23T06:47:48.360Z,26.20
2023-05-23T06:50:20.082Z,26.40
2023-05-23T06:52:49.921Z,26.40
2023-05-23T06:55:19.593Z,26.40
2023-05-23T06:57:52.049Z,26.30
2023-05-23T07:00:21.603Z,26.20
2023-05-23T07:03:17.962Z,26.20
2023-05-23T07:05:47.475Z,26.20
2023-05-23T07:08:16.706Z,26.20
2023-05-23T07:10:55.622Z,26.10
2023-05-23T07:13:33.046Z,26.00
2023-05-23T07:16:00.924Z,26.10
2023-05-23T07:18:28.340Z,26.20
2023-05-23T07:20:57.818Z,26.20
2023-05-23T07:23:25.945Z,26.30
2023-05-23T07:26:01.880Z,26.30
2023-05-23T07:28:40.252Z,26.40
2023-05-23T07:31:09.547Z,26.50
2023-05-23T07:33:38.466Z,26.60
2023-05-23T07:36:08.327Z,26.70
2023-05-23T07:38:35.970Z,26.80
2023-05-23T07:41:11.623Z,27.00
2023-05-23T07:43:41.192Z,27.10
2023-05-23T07:46:09.236Z,27.10
2023-05-23T07:48:38.151Z,27.20
2023-05-23T07:51:06.060Z,27.20
2023-05-23T07:53:35.313Z,27.20
2023-05-23T07:56:04.285Z,27.30
2023-05-23T07:58:37.212Z,27.30
2023-05-23T08:01:05.108Z,27.40
2023-05-23T08:03:51.484Z,27.30
2023-05-23T08:06:25.424Z,27.40
2023-05-23T08:08:53.178Z,27.50
2023-05-23T08:11:20.822Z,27.70
2023-05-23T08:13:51.522Z,27.90
2023-05-23T08:16:48.446Z,28.00
2023-05-23T08:19:23.046Z,28.10
2023-05-23T08:21:53.224Z,28.10
2023-05-23T08:24:21.731Z,28.10
2023-05-23T08:26:50.465Z,28.30
2023-05-23T08:29:18.612Z,28.40
2023-05-23T08:31:46.077Z,28.40
2023-05-23T08:34:14.311Z,28.50
2023-05-23T08:36:43.190Z,28.50
2023-05-23T08:39:15.314Z,28.70
2023-05-23T08:41:52.642Z,28.80
2023-05-23T08:44:19.994Z,28.90
2023-05-23T08:46:53.803Z,29.00
2023-05-23T08:49:41.338Z,29.10
2023-05-23T08:52:13.634Z,29.10
2023-05-23T08:54:44.586Z,29.20
2023-05-23T08:57:13.996Z,29.10
2023-05-23T08:59:47.043Z,29.00
2023-05-23T09:02:16.873Z,29.00
2023-05-23T09:04:46.772Z,28.90
2023-05-23T09:07:19.751Z,28.90
2023-05-23T09:09:51.061Z,29.00
2023-05-23T09:12:18.570Z,29.10
2023-05-23T09:14:48.374Z,29.20
2023-05-23T09:17:19.711Z,29.30
2023-05-23T09:19:48.554Z,29.50
2023-05-23T09:22:28.738Z,29.80
2023-05-23T09:25:02.048Z,30.00
2023-05-23T09:27:31.150Z,30.10
2023-05-23T09:30:05.488Z,30.10
2023-05-23T09:32:32.918Z,30.10
2023-05-23T09:35:05.789Z,30.20
2023-05-23T09:37:39.203Z,30.50
2023-05-23T09:40:11.667Z,30.80
2023-05-23T09:42:44.180Z,30.90
2023-05-23T09:45:12.873Z,30.90
2023-05-23T09:47:49.046Z,30.90
2023-05-23T09:50:16.501Z,30.90
2023-05-23T09:52:44.117Z,31.00
2023-05-23T09:55:11.910Z,31.20
2023-05-23T09:57:44.215Z,31.20
2023-05-23T10:00:13.618Z,31.40
2023-05-23T10:03:15.059Z,31.50
2023-05-23T10:05:46.615Z,31.60
2023-05-23T10:08:31.253Z,31.50
2023-05-23T10:10:58.577Z,31.50
2023-05-23T10:13:27.380Z,31.60
2023-05-23T10:16:03.123Z,31.70
2023-05-23T10:18:34.903Z,31.80
2023-05-23T10:21:08.648Z,31.90
2023-05-23T10:23:37.697Z,32.00
2023-05-23T10:26:05.471Z,32.10
2023-05-23T10:28:33.126Z,32.20
2023-05-23T10:31:00.871Z,32.30
2023-05-23T10:33:34.378Z,32.30
2023-05-23T10:36:10.120Z,32.10
2023-05-23T10:39:13.282Z,32.10
2023-05-23T10:42:01.122Z,32.20
2023-05-23T10:44:30.821Z,32.50
2023-05-23T10:47:03.928Z,32.40
2023-05-23T10:49:55.046Z,31.80
2023-05-23T10:52:26.466Z,31.30
2023-05-23T10:54:56.250Z,31.40
2023-05-23T10:57:37.569Z,31.40
2023-05-23T11:00:16.351Z,31.30
2023-05-23T11:02:55.612Z,31.40
2023-05-23T11:05:25.109Z,31.70
2023-05-23T11:08:15.270Z,31.40
2023-05-23T11:10:54.113Z,31.40
2023-05-23T11:13:22.568Z,31.50
2023-05-23T11:15:50.760Z,31.70
2023-05-23T11:18:27.353Z,31.60
2023-05-23T11:20:55.745Z,31.50
2023-05-23T11:23:24.269Z,31.60
2023-05-23T11:25:53.824Z,31.60
2023-05-23T11:28:21.383Z,31.50
2023-05-23T11:30:50.025Z,31.60
2023-05-23T11:33:18.622Z,31.80
2023-05-23T11:35:48.192Z,32.00
2023-05-23T11:38:16.827Z,32.00
2023-05-23T11:40:46.436Z,32.10
2023-05-23T11:43:16.729Z,32.30
2023-05-23T11:45:46.792Z,32.50
2023-05-23T11:48:16.634Z,32.50
2023-05-23T11:50:52.498Z,32.40
2023-05-23T11:53:22.155Z,32.10
2023-05-23T11:55:53.092Z,32.00
2023-05-23T11:58:27.987Z,31.80
2023-05-23T12:01:01.273Z,31.60
2023-05-23T12:03:28.932Z,31.80
2023-05-23T12:05:56.551Z,31.80
2023-05-23T12:08:25.289Z,31.80
2023-05-23T12:11:02.935Z,31.60
2023-05-23T12:13:30.876Z,31.60
2023-05-23T12:16:00.728Z,31.60
2023-05-23T12:18:31.992Z,31.50
2023-05-23T12:21:05.725Z,31.40
2023-05-23T12:23:34.896Z,31.30
2023-05-23T12:26:06.992Z,31.50
2023-05-23T12:28:37.191Z,31.70
2023-05-23T12:31:17.465Z,31.80
2023-05-23T12:33:48.032Z,32.10
2023-05-23T12:36:22.839Z,32.20
2023-05-23T12:38:50.252Z,32.30
2023-05-23T12:41:20.006Z,32.20
2023-05-23T12:43:52.668Z,32.20
2023-05-23T12:46:22.010Z,32.20
2023-05-23T12:48:49.460Z,32.20
2023-05-23T12:51:17.289Z,32.40
2023-05-23T12:53:44.983Z,32.50
2023-05-23T12:56:12.381Z,32.50
2023-05-23T12:58:39.871Z,32.40
2023-05-23T13:01:07.554Z,32.20
2023-05-23T13:03:38.109Z,32.20
2023-05-23T13:06:07.090Z,32.00
2023-05-23T13:08:34.501Z,31.90
2023-05-23T13:11:01.898Z,32.00
2023-05-23T13:13:29.854Z,31.90
2023-05-23T13:15:57.503Z,31.60
2023-05-23T13:18:25.566Z,31.60
2023-05-23T13:20:53.113Z,31.60
2023-05-23T13:23:21.195Z,31.70
2023-05-23T13:25:50.532Z,31.80
2023-05-23T13:28:18.738Z,31.90
2023-05-23T13:30:47.280Z,32.00
2023-05-23T13:33:16.349Z,32.00
2023-05-23T13:35:45.595Z,31.70
2023-05-23T13:38:13.001Z,31.60
2023-05-23T13:40:40.869Z,31.30
2023-05-23T13:43:08.637Z,31.20
2023-05-23T13:45:36.413Z,31.20
2023-05-23T13:48:03.903Z,31.20
2023-05-23T13:50:31.528Z,31.00
2023-05-23T13:52:59.168Z,30.70
2023-05-23T13:55:27.599Z,30.60
2023-05-23T13:57:55.004Z,30.30
2023-05-23T14:00:22.853Z,29.90
2023-05-23T14:02:50.667Z,29.40
2023-05-23T14:05:19.561Z,29.10
2023-05-23T14:07:47.455Z,28.80
2023-05-23T14:10:17.279Z,28.60
2023-05-23T14:12:44.691Z,28.50
2023-05-23T14:15:12.510Z,28.40
2023-05-23T14:17:39.935Z,28.20
2023-05-23T14:20:08.676Z,28.30
2023-05-23T14:22:37.145Z,28.40
2023-05-23T14:25:05.336Z,28.50
2023-05-23T14:27:33.757Z,28.50
2023-05-23T14:30:01.362Z,28.40
2023-05-23T14:32:29.062Z,28.00
2023-05-23T14:34:56.602Z,27.30
2023-05-23T14:37:23.937Z,26.80
2023-05-23T14:39:51.417Z,26.40
2023-05-23T14:42:18.729Z,26.10
2023-05-23T14:44:46.419Z,25.90
2023-05-23T14:47:13.835Z,25.60
2023-05-23T14:49:41.558Z,25.50
2023-05-23T14:52:08.900Z,25.30
2023-05-23T14:54:36.271Z,25.10
2023-05-23T14:57:03.748Z,24.90
2023-05-23T14:59:32.105Z,24.70
2023-05-23T15:01:59.600Z,24.50
2023-05-23T15:04:27.339Z,24.40
2023-05-23T15:06:54.806Z,24.40
2023-05-23T15:09:22.757Z,24.40
2023-05-23T15:11:51.117Z,24.40
2023-05-23T15:14:18.555Z,24.30
2023-05-23T15:16:46.573Z,24.30
2023-05-23T15:19:14.073Z,24.20
2023-05-23T15:21:49.916Z,24.00
2023-05-23T15:24:18.885Z,24.00
2023-05-23T15:26:46.512Z,23.90
2023-05-23T15:29:15.420Z,23.80
2023-05-23T15:31:42.924Z,23.70
2023-05-23T15:34:10.649Z,23.60
2023-05-23T15:36:40.937Z,23.50
2023-05-23T15:39:08.519Z,23.30
2023-05-23T15:41:35.868Z,23.30
2023-05-23T15:44:03.344Z,23.20
2023-05-23T15:46:31.109Z,23.00
2023-05-23T15:49:05.021Z,22.90
2023-05-23T15:51:41.122Z,22.80
2023-05-23T15:54:08.562Z,22.60
2023-05-23T15:56:36.472Z,22.50
2023-05-23T15:59:03.925Z,22.30
2023-05-23T16:01:31.616Z,22.20
2023-05-23T16:03:59.099Z,22.20
2023-05-23T16:06:28.360Z,22.20
2023-05-23T16:09:00.507Z,22.20
2023-05-23T16:11:28.257Z,22.30
2023-05-23T16:13:56.086Z,22.40
2023-05-23T16:16:23.501Z,22.50
2023-05-23T16:18:51.121Z,22.60
2023-05-23T16:21:20.662Z,22.60
2023-05-23T16:23:49.679Z,22.60
2023-05-23T16:26:18.668Z,22.70
2023-05-23T16:28:46.452Z,22.70
2023-05-23T16:31:15.659Z,22.70
2023-05-23T16:33:44.008Z,22.70
2023-05-23T16:36:11.481Z,22.60
2023-05-23T16:38:38.862Z,22.60
2023-05-23T16:41:06.323Z,22.60
2023-05-23T16:43:34.662Z,22.60
2023-05-23T16:46:02.599Z,22.60
2023-05-23T16:48:30.042Z,22.50
2023-05-23T16:50:58.061Z,22.40
2023-05-23T16:53:25.473Z,22.30
2023-05-23T16:55:52.823Z,22.20
2023-05-23T16:58:21.273Z,22.20
2023-05-23T17:00:49.210Z,22.10
2023-05-23T17:03:16.723Z,22.10
2023-05-23T17:05:44.308Z,22.00
2023-05-23T17:08:12.133Z,21.90
2023-05-23T17:10:40.205Z,21.90
2023-05-23T17:13:09.164Z,21.90
2023-05-23T17:15:36.883Z,21.90
2023-05-23T17:18:04.492Z,21.80
2023-05-23T17:20:32.461Z,21.80
2023-05-23T17:23:00.276Z,21.80
2023-05-23T17:25:27.614Z,21.70
2023-05-23T17:27:55.803Z,21.70
2023-05-23T17:30:23.237Z,21.70
2023-05-23T17:32:51.054Z,21.70
2023-05-23T17:35:18.802Z,21.80
2023-05-23T17:37:46.701Z,21.80
2023-05-23T17:40:16.151Z,21.90
2023-05-23T17:42:43.971Z,22.00
2023-05-23T17:45:11.879Z,22.00
2023-05-23T17:47:39.666Z,22.00
2023-05-23T17:50:09.083Z,22.10
2023-05-23T17:52:36.541Z,22.10
2023-05-23T17:55:04.429Z,22.20
2023-05-23T17:57:31.997Z,22.20
2023-05-23T17:59:59.749Z,22.20
2023-05-23T18:02:28.138Z,22.20
2023-05-23T18:04:55.914Z,22.20
2023-05-23T18:07:23.372Z,22.20
2023-05-23T18:09:51.024Z,22.10
2023-05-23T18:12:18.952Z,22.20
2023-05-23T18:14:46.435Z,22.00
2023-05-23T18:17:13.802Z,22.00
2023-05-23T18:19:42.130Z,21.90
2023-05-23T18:22:09.646Z,21.80
2023-05-23T18:24:38.496Z,21.70
2023-05-23T18:27:06.145Z,21.60
2023-05-23T18:29:33.681Z,21.50
2023-05-23T18:32:01.698Z,21.30
2023-05-23T18:34:29.509Z,21.20
2023-05-23T18:36:56.909Z,21.20
2023-05-23T18:39:24.517Z,21.10
2023-05-23T18:41:52.384Z,21.10
2023-05-23T18:44:21.131Z,21.00
2023-05-23T18:46:48.818Z,21.00
2023-05-23T18:49:16.336Z,20.80
2023-05-23T18:51:44.035Z,20.80
2023-05-23T18:54:11.382Z,20.80
2023-05-23T18:56:38.836Z,20.70
2023-05-23T18:59:06.170Z,20.70
2023-05-23T19:01:33.752Z,20.70
2023-05-23T19:04:01.707Z,20.60
2023-05-23T19:06:29.273Z,20.50
2023-05-23T19:08:57.134Z,20.50
2023-05-23T19:11:24.737Z,20.40
2023-05-23T19:13:52.240Z,20.40
2023-05-23T19:16:21.265Z,20.40
2023-05-23T19:18:48.715Z,20.30
2023-05-23T19:21:16.513Z,20.30
2023-05-23T19:23:44.042Z,20.20
2023-05-23T19:26:13.661Z,20.20
2023-05-23T19:28:41.363Z,20.10
2023-05-23T19:31:09.497Z,20.10
2023-05-23T19:33:37.055Z,20.10
2023-05-23T19:36:05.715Z,20.00
2023-05-23T19:38:33.077Z,20.10
2023-05-23T19:41:00.582Z,20.10
2023-05-23T19:43:27.860Z,20.10
2023-05-23T19:45:55.607Z,20.10
2023-05-23T19:48:23.128Z,20.10
2023-05-23T19:50:50.513Z,20.00
2023-05-23T19:53:17.961Z,20.00
2023-05-23T19:55:45.994Z,19.90
2023-05-23T19:58:13.370Z,19.80
2023-05-23T20:00:41.475Z,19.80
2023-05-23T20:03:09.676Z,19.80
2023-05-23T20:05:37.135Z,19.70
2023-05-23T20:08:05.023Z,19.70
2023-05-23T20:10:32.467Z,19.70
2023-05-23T20:12:59.975Z,19.60
2023-05-23T20:15:38.619Z,19.60
2023-05-23T20:18:08.272Z,19.50
2023-05-23T20:20:36.237Z,19.50
2023-05-23T20:23:04.387Z,19.40
2023-05-23T20:25:31.900Z,19.40
2023-05-23T20:27:59.618Z,19.40
2023-05-23T20:30:28.074Z,19.30
2023-05-23T20:32:55.662Z,19.30
2023-05-23T20:35:23.711Z,19.30
2023-05-23T20:37:52.022Z,19.30
2023-05-23T20:40:20.497Z,19.30
2023-05-23T20:42:48.092Z,19.20
2023-05-23T20:45:16.118Z,19.30
2023-05-23T20:47:43.815Z,19.30
2023-05-23T20:50:13.065Z,19.30
2023-05-23T20:52:43.014Z,19.30
2023-05-23T20:55:11.010Z,19.30
2023-05-23T20:57:38.538Z,19.20
2023-05-23T21:00:11.604Z,19.10
2023-05-23T21:02:43.269Z,19.20
2023-05-23T21:05:11.957Z,19.10
2023-05-23T21:07:39.650Z,19.10
2023-05-23T21:10:07.678Z,19.10
2023-05-23T21:12:36.008Z,19.10
2023-05-23T21:15:03.744Z,19.10
2023-05-23T21:17:31.378Z,19.00
2023-05-23T21:19:58.730Z,19.00
2023-05-23T21:22:26.260Z,19.00
2023-05-23T21:24:53.761Z,19.00
2023-05-23T21:27:21.628Z,19.00
2023-05-23T21:29:49.334Z,19.00
2023-05-23T21:32:16.889Z,19.00
2023-05-23T21:34:44.334Z,19.00
2023-05-23T21:37:11.802Z,19.00
2023-05-23T21:39:50.527Z,19.00
2023-05-23T21:42:19.728Z,19.00
2023-05-23T21:44:47.168Z,19.00
2023-05-23T21:47:14.514Z,19.00
2023-05-23T21:49:42.145Z,19.00
2023-05-23T21:52:09.467Z,19.10
2023-05-23T21:54:37.143Z,19.10
2023-05-23T21:57:04.962Z,19.20
2023-05-23T21:59:32.578Z,19.20
2023-05-23T22:02:00.379Z,19.30
2023-05-23T22:04:28.120Z,19.30
2023-05-23T22:06:55.842Z,19.30
2023-05-23T22:09:23.274Z,19.30
2023-05-23T22:11:50.853Z,19.30
2023-05-23T22:14:18.680Z,19.30
2023-05-23T22:16:46.355Z,19.40
2023-05-23T22:19:18.127Z,19.30
2023-05-23T22:21:46.024Z,19.40
2023-05-23T22:24:13.556Z,19.40
2023-05-23T22:26:41.522Z,19.40
2023-05-23T22:29:09.078Z,19.40
2023-05-23T22:31:37.049Z,19.40
2023-05-23T22:34:04.564Z,19.40
2023-05-23T22:36:33.633Z,19.40
2023-05-23T22:39:05.761Z,19.40
2023-05-23T22:41:33.451Z,19.40
2023-05-23T22:44:01.227Z,19.30
2023-05-23T22:46:28.923Z,19.30
2023-05-23T22:48:56.661Z,19.30
2023-05-23T22:51:24.831Z,19.30
2023-05-23T22:53:53.038Z,19.20
2023-05-23T22:56:20.793Z,19.20
2023-05-23T22:58:48.282Z,19.20
2023-05-23T23:01:15.870Z,19.20
2023-05-23T23:03:43.690Z,19.20
2023-05-23T23:06:11.220Z,19.10
2023-05-23T23:08:38.844Z,19.10
2023-05-23T23:11:06.336Z,19.10
2023-05-23T23:13:33.798Z,19.10
2023-05-23T23:16:01.294Z,19.10
2023-05-23T23:18:28.846Z,19.00
2023-05-23T23:20:56.306Z,19.00
2023-05-23T23:23:23.853Z,19.00
2023-05-23T23:25:52.702Z,18.90
2023-05-23T23:28:20.989Z,18.90
2023-05-23T23:30:48.386Z,18.90
2023-05-23T23:33:16.161Z,18.90
2023-05-23T23:35:48.688Z,18.90
2023-05-23T23:38:16.722Z,18.90
2023-05-23T23:40:45.881Z,18.90
2023-05-23T23:43:13.994Z,18.90
2023-05-23T23:45:41.766Z,18.90
2023-05-23T23:48:09.654Z,18.80
2023-05-23T23:50:37.135Z,18.80
2023-05-23T23:53:04.659Z,18.80
2023-05-23T23:55:32.262Z,18.80
2023-05-23T23:57:59.760Z,18.70
